Carnival Vista — 3EMB9 — position and weather

sailwx.info

Track history (hours):
 
Tides and Currents Weather Stations Pressure Air Temp Water Temp Dewpoint Dewpoint Depression Visibility Wind Speed Wind Dir Waves Ship Positions

Carnival Vista

Last reported at 2017-Oct-15 21:50 UTC. Time now 2017-Oct-18 09:15 UTC.
Position N 25°38' W 079°52'.

Length 324 m; draft 8.5 m.

Type: Passenger vessel. MMSI: 356883000.

Date/timePositionNaut miles runAvg speedWind from/ knotsBaromVisibWave heightAir tempDewpointWater temp
2017-Oct-15 21:50N 25°38' W 079°52'515.6
2017-Oct-15 21:30N 25°41' W 079°57'714.7
2017-Oct-15 21:00N 25°46' W 080°04'5 9.7
2017-Oct-15 20:30N 25°46' W 080°09'1 2.0
2017-Oct-15 19:59N 25°47' W 080°10'0 0.0
2017-Oct-15 19:29N 25°47' W 080°10'0 0.0
2017-Oct-15 18:59N 25°47' W 080°10'0 0.0
2017-Oct-15 18:29N 25°47' W 080°10'0 0.0
2017-Oct-15 17:59N 25°47' W 080°10'0 0.0
2017-Oct-15 17:29N 25°47' W 080°10'0 0.0
2017-Oct-15 16:59N 25°47' W 080°10'0 0.0
2017-Oct-15 16:29N 25°47' W 080°10'0 0.0
2017-Oct-15 15:59N 25°47' W 080°10'0 0.0
2017-Oct-15 15:29N 25°47' W 080°10'0 0.0
2017-Oct-15 14:59N 25°47' W 080°10'0 0.0
2017-Oct-15 13:59N 25°47' W 080°10'0 0.0
2017-Oct-15 13:29N 25°47' W 080°10'0 0.0
2017-Oct-15 12:59N 25°47' W 080°10'0 0.0
2017-Oct-15 12:29N 25°47' W 080°10'0 0.0
2017-Oct-15 11:59N 25°47' W 080°10'0 0.0
2017-Oct-15 11:29N 25°47' W 080°10'0 0.0
2017-Oct-15 10:59N 25°47' W 080°10'0 0.0
2017-Oct-15 10:29N 25°47' W 080°10'0 0.0
2017-Oct-15 09:59N 25°47' W 080°10'0 0.0
2017-Oct-15 09:30N 25°47' W 080°10'1 1.6
2017-Oct-15 09:01N 25°47' W 080°11'1 2.8
2017-Oct-15 08:30N 25°46' W 080°09'510.2
2017-Oct-15 08:01N 25°46' W 080°04'611.8
2017-Oct-15 07:31N 25°42' W 079°59'917.8
2017-Oct-15 07:01N 25°35' W 079°53'918.6
2017-Oct-15 06:30N 25°28' W 079°46'918.1
2017-Oct-15 06:00N 25°20' W 079°41'  
2017-Oct-07 23:38N 26°04' W 079°31'218.6
2017-Oct-07 23:31N 26°03' W 079°34'918.2
2017-Oct-07 23:00N 25°58' W 079°42'917.8
2017-Oct-07 22:30N 25°54' W 079°51'917.4
2017-Oct-07 22:00N 25°49' W 079°59'714.1
2017-Oct-07 21:30N 25°46' W 080°06'4 7.6
2017-Oct-07 21:00N 25°47' W 080°10'0 0.1
2017-Oct-07 20:30N 25°47' W 080°10'0 0.0
2017-Oct-07 20:00N 25°47' W 080°10'0 0.0
2017-Oct-07 19:30N 25°47' W 080°10'0 0.0
2017-Oct-07 19:00N 25°47' W 080°10'0 0.0
2017-Oct-07 18:30N 25°47' W 080°10'0 0.0
2017-Oct-07 18:00N 25°47' W 080°10'0 0.0
2017-Oct-07 17:30N 25°47' W 080°10'0 0.0
2017-Oct-07 17:00N 25°47' W 080°10'0 0.0
2017-Oct-07 16:30N 25°47' W 080°10'0 0.0
2017-Oct-07 16:00N 25°47' W 080°10'0 0.0
2017-Oct-07 15:30N 25°47' W 080°10'0 0.0
2017-Oct-07 15:00N 25°47' W 080°10'0 0.0
2017-Oct-07 14:30N 25°47' W 080°10'0 0.0
2017-Oct-07 14:00N 25°47' W 080°10'0 0.0
2017-Oct-07 13:30N 25°47' W 080°10'0 0.0
2017-Oct-07 13:00N 25°47' W 080°10'0 0.0
2017-Oct-07 12:30N 25°47' W 080°10'0 0.0
2017-Oct-07 12:00N 25°47' W 080°10'0 0.0
2017-Oct-07 11:30N 25°47' W 080°10'0 0.0
2017-Oct-07 11:00N 25°47' W 080°10'0 0.0
2017-Oct-07 10:30N 25°47' W 080°10'0 0.0
2017-Oct-07 10:00N 25°47' W 080°10'0 0.0
2017-Oct-07 09:30N 25°47' W 080°10'0 0.0
2017-Oct-07 09:01N 25°47' W 080°10'1 1.8
2017-Oct-07 08:30N 25°47' W 080°11'2 4.8
2017-Oct-07 08:00N 25°46' W 080°09'510.0
2017-Oct-07 07:30N 25°46' W 080°03'612.1
2017-Oct-07 07:00N 25°42' W 079°58'815.3
2017-Oct-07 06:30N 25°36' W 079°53'815.4
2017-Oct-07 06:00N 25°30' W 079°48'815.5
2017-Oct-07 05:30N 25°23' W 079°44'915.9
2017-Oct-07 04:57N 25°15' W 079°39'2117.1
2017-Oct-07 03:45N 24°55' W 079°43'48017.2
2017-Oct-05 23:50N 20°32' W 086°59'3 9.8
2017-Oct-05 23:30N 20°29' W 086°59'1 1.5
2017-Oct-05 22:58N 20°29' W 086°59'0 0.0
2017-Oct-05 22:28N 20°29' W 086°59'0 0.0
2017-Oct-05 21:55N 20°29' W 086°59'  
Track history (hours):
 
Tides and Currents Weather Stations Pressure Air Temp Water Temp Dewpoint Dewpoint Depression Visibility Wind Speed Wind Dir Waves Ship Positions

Carnival Vista

Last reported at 2017-Oct-15 21:50 UTC. Time now 2017-Oct-18 09:15 UTC.
Position N 25°38' W 079°52'.

Length 324 m; draft 8.5 m.

Type: Passenger vessel. MMSI: 356883000.

Date/timePositionNaut miles runAvg speedWind from/ knotsBaromVisibWave heightAir tempDewpointWater temp
2017-Oct-15 21:50N 25°38' W 079°52'515.6
2017-Oct-15 21:30N 25°41' W 079°57'714.7
2017-Oct-15 21:00N 25°46' W 080°04'5 9.7
2017-Oct-15 20:30N 25°46' W 080°09'1 2.0
2017-Oct-15 19:59N 25°47' W 080°10'0 0.0
2017-Oct-15 19:29N 25°47' W 080°10'0 0.0
2017-Oct-15 18:59N 25°47' W 080°10'0 0.0
2017-Oct-15 18:29N 25°47' W 080°10'0 0.0
2017-Oct-15 17:59N 25°47' W 080°10'0 0.0
2017-Oct-15 17:29N 25°47' W 080°10'0 0.0
2017-Oct-15 16:59N 25°47' W 080°10'0 0.0
2017-Oct-15 16:29N 25°47' W 080°10'0 0.0
2017-Oct-15 15:59N 25°47' W 080°10'0 0.0
2017-Oct-15 15:29N 25°47' W 080°10'0 0.0
2017-Oct-15 14:59N 25°47' W 080°10'0 0.0
2017-Oct-15 13:59N 25°47' W 080°10'0 0.0
2017-Oct-15 13:29N 25°47' W 080°10'0 0.0
2017-Oct-15 12:59N 25°47' W 080°10'0 0.0
2017-Oct-15 12:29N 25°47' W 080°10'0 0.0
2017-Oct-15 11:59N 25°47' W 080°10'0 0.0
2017-Oct-15 11:29N 25°47' W 080°10'0 0.0
2017-Oct-15 10:59N 25°47' W 080°10'0 0.0
2017-Oct-15 10:29N 25°47' W 080°10'0 0.0
2017-Oct-15 09:59N 25°47' W 080°10'0 0.0
2017-Oct-15 09:30N 25°47' W 080°10'1 1.6
2017-Oct-15 09:01N 25°47' W 080°11'1 2.8
2017-Oct-15 08:30N 25°46' W 080°09'510.2
2017-Oct-15 08:01N 25°46' W 080°04'611.8
2017-Oct-15 07:31N 25°42' W 079°59'917.8
2017-Oct-15 07:01N 25°35' W 079°53'918.6
2017-Oct-15 06:30N 25°28' W 079°46'918.1
2017-Oct-15 06:00N 25°20' W 079°41'  
2017-Oct-07 23:38N 26°04' W 079°31'218.6
2017-Oct-07 23:31N 26°03' W 079°34'918.2
2017-Oct-07 23:00N 25°58' W 079°42'917.8
2017-Oct-07 22:30N 25°54' W 079°51'917.4
2017-Oct-07 22:00N 25°49' W 079°59'714.1
2017-Oct-07 21:30N 25°46' W 080°06'4 7.6
2017-Oct-07 21:00N 25°47' W 080°10'0 0.1
2017-Oct-07 20:30N 25°47' W 080°10'0 0.0
2017-Oct-07 20:00N 25°47' W 080°10'0 0.0
2017-Oct-07 19:30N 25°47' W 080°10'0 0.0
2017-Oct-07 19:00N 25°47' W 080°10'0 0.0
2017-Oct-07 18:30N 25°47' W 080°10'0 0.0
2017-Oct-07 18:00N 25°47' W 080°10'0 0.0
2017-Oct-07 17:30N 25°47' W 080°10'0 0.0
2017-Oct-07 17:00N 25°47' W 080°10'0 0.0
2017-Oct-07 16:30N 25°47' W 080°10'0 0.0
2017-Oct-07 16:00N 25°47' W 080°10'0 0.0
2017-Oct-07 15:30N 25°47' W 080°10'0 0.0
2017-Oct-07 15:00N 25°47' W 080°10'0 0.0
2017-Oct-07 14:30N 25°47' W 080°10'0 0.0
2017-Oct-07 14:00N 25°47' W 080°10'0 0.0
2017-Oct-07 13:30N 25°47' W 080°10'0 0.0
2017-Oct-07 13:00N 25°47' W 080°10'0 0.0
2017-Oct-07 12:30N 25°47' W 080°10'0 0.0
2017-Oct-07 12:00N 25°47' W 080°10'0 0.0
2017-Oct-07 11:30N 25°47' W 080°10'0 0.0
2017-Oct-07 11:00N 25°47' W 080°10'0 0.0
2017-Oct-07 10:30N 25°47' W 080°10'0 0.0
2017-Oct-07 10:00N 25°47' W 080°10'0 0.0
2017-Oct-07 09:30N 25°47' W 080°10'0 0.0
2017-Oct-07 09:01N 25°47' W 080°10'1 1.8
2017-Oct-07 08:30N 25°47' W 080°11'2 4.8
2017-Oct-07 08:00N 25°46' W 080°09'510.0
2017-Oct-07 07:30N 25°46' W 080°03'612.1
2017-Oct-07 07:00N 25°42' W 079°58'815.3
2017-Oct-07 06:30N 25°36' W 079°53'815.4
2017-Oct-07 06:00N 25°30' W 079°48'815.5
2017-Oct-07 05:30N 25°23' W 079°44'915.9
2017-Oct-07 04:57N 25°15' W 079°39'2117.1
2017-Oct-07 03:45N 24°55' W 079°43'48017.2
2017-Oct-05 23:50N 20°32' W 086°59'3 9.8
2017-Oct-05 23:30N 20°29' W 086°59'1 1.5
2017-Oct-05 22:58N 20°29' W 086°59'0 0.0
2017-Oct-05 22:28N 20°29' W 086°59'0 0.0
2017-Oct-05 21:55N 20°29' W 086°59'  

Dump ship's entire track history